sensor_id;sensor_type;location;lat;lon;timestamp;temperature;humidity
12386;DHT22;6257;57.634;18.310;2023-03-01T00:00:05;2.20;99.90
12386;DHT22;6257;57.634;18.310;2023-03-01T00:02:34;2.20;99.90
12386;DHT22;6257;57.634;18.310;2023-03-01T00:05:01;2.10;99.90
12386;DHT22;6257;57.634;18.310;2023-03-01T00:07:29;2.00;99.90
12386;DHT22;6257;57.634;18.310;2023-03-01T00:09:56;2.10;99.90
12386;DHT22;6257;57.634;18.310;2023-03-01T00:12:23;2.30;99.90
12386;DHT22;6257;57.634;18.310;2023-03-01T00:14:50;2.50;99.90
12386;DHT22;6257;57.634;18.310;2023-03-01T00:17:18;2.50;99.90
12386;DHT22;6257;57.634;18.310;2023-03-01T00:19:44;2.60;99.90
12386;DHT22;6257;57.634;18.310;2023-03-01T00:22:11;2.60;99.90
12386;DHT22;6257;57.634;18.310;2023-03-01T00:24:40;2.70;99.90
12386;DHT22;6257;57.634;18.310;2023-03-01T00:27:07;2.70;99.90
12386;DHT22;6257;57.634;18.310;2023-03-01T00:29:34;2.60;99.90
12386;DHT22;6257;57.634;18.310;2023-03-01T00:32:01;2.70;99.90
12386;DHT22;6257;57.634;18.310;2023-03-01T00:34:28;2.60;99.90
12386;DHT22;6257;57.634;18.310;2023-03-01T00:36:55;2.50;99.90
12386;DHT22;6257;57.634;18.310;2023-03-01T00:39:31;2.60;99.90
12386;DHT22;6257;57.634;18.310;2023-03-01T00:42:00;2.50;99.90
12386;DHT22;6257;57.634;18.310;2023-03-01T00:44:30;2.40;99.90
12386;DHT22;6257;57.634;18.310;2023-03-01T00:46:57;2.40;99.90
12386;DHT22;6257;57.634;18.310;2023-03-01T00:49:24;2.30;99.90
12386;DHT22;6257;57.634;18.310;2023-03-01T00:51:53;2.20;99.90
12386;DHT22;6257;57.634;18.310;2023-03-01T00:54:20;2.10;99.90
12386;DHT22;6257;57.634;18.310;2023-03-01T00:56:47;2.00;99.90
12386;DHT22;6257;57.634;18.310;2023-03-01T00:59:16;1.90;99.90
12386;DHT22;6257;57.634;18.310;2023-03-01T01:01:43;1.80;99.90
12386;DHT22;6257;57.634;18.310;2023-03-01T01:04:11;1.70;99.90
12386;DHT22;6257;57.634;18.310;2023-03-01T01:06:41;1.60;99.90
12386;DHT22;6257;57.634;18.310;2023-03-01T01:09:10;1.50;99.90
12386;DHT22;6257;57.634;18.310;2023-03-01T01:11:43;1.40;99.90
12386;DHT22;6257;57.634;18.310;2023-03-01T01:14:10;1.30;99.90
12386;DHT22;6257;57.634;18.310;2023-03-01T01:16:39;1.20;99.90
12386;DHT22;6257;57.634;18.310;2023-03-01T01:19:06;1.10;99.90
12386;DHT22;6257;57.634;18.310;2023-03-01T01:21:34;1.10;99.90
12386;DHT22;6257;57.634;18.310;2023-03-01T01:24:03;0.90;99.90
12386;DHT22;6257;57.634;18.310;2023-03-01T01:26:31;0.80;99.90
12386;DHT22;6257;57.634;18.310;2023-03-01T01:28:59;0.80;99.90
12386;DHT22;6257;57.634;18.310;2023-03-01T01:31:27;0.60;99.90
12386;DHT22;6257;57.634;18.310;2023-03-01T01:33:57;0.60;99.90
12386;DHT22;6257;57.634;18.310;2023-03-01T01:36:24;0.60;99.90
12386;DHT22;6257;57.634;18.310;2023-03-01T01:38:51;0.50;99.90
12386;DHT22;6257;57.634;18.310;2023-03-01T01:41:19;0.50;99.90
12386;DHT22;6257;57.634;18.310;2023-03-01T01:43:49;0.80;99.90
12386;DHT22;6257;57.634;18.310;2023-03-01T01:46:37;0.90;99.90
12386;DHT22;6257;57.634;18.310;2023-03-01T01:49:10;1.40;99.90
12386;DHT22;6257;57.634;18.310;2023-03-01T01:51:41;1.40;99.90
12386;DHT22;6257;57.634;18.310;2023-03-01T01:54:14;1.60;99.90
12386;DHT22;6257;57.634;18.310;2023-03-01T01:56:46;1.80;99.90
12386;DHT22;6257;57.634;18.310;2023-03-01T01:59:15;1.90;99.90
12386;DHT22;6257;57.634;18.310;2023-03-01T02:01:42;2.00;99.90
12386;DHT22;6257;57.634;18.310;2023-03-01T02:04:11;2.00;99.90
12386;DHT22;6257;57.634;18.310;2023-03-01T02:06:44;1.90;99.90
12386;DHT22;6257;57.634;18.310;2023-03-01T02:09:14;1.70;99.90
12386;DHT22;6257;57.634;18.310;2023-03-01T02:11:43;1.50;99.90
12386;DHT22;6257;57.634;18.310;2023-03-01T02:14:11;1.40;99.90
12386;DHT22;6257;57.634;18.310;2023-03-01T02:16:38;1.30;99.90
12386;DHT22;6257;57.634;18.310;2023-03-01T02:19:05;1.20;99.90
12386;DHT22;6257;57.634;18.310;2023-03-01T02:21:42;1.00;99.90
12386;DHT22;6257;57.634;18.310;2023-03-01T02:24:19;1.00;99.90
12386;DHT22;6257;57.634;18.310;2023-03-01T02:26:54;1.00;99.90
12386;DHT22;6257;57.634;18.310;2023-03-01T02:29:23;1.20;99.90
12386;DHT22;6257;57.634;18.310;2023-03-01T02:31:52;1.10;99.90
12386;DHT22;6257;57.634;18.310;2023-03-01T02:34:23;1.00;99.90
12386;DHT22;6257;57.634;18.310;2023-03-01T02:36:54;0.90;99.90
12386;DHT22;6257;57.634;18.310;2023-03-01T02:39:26;0.80;99.90
12386;DHT22;6257;57.634;18.310;2023-03-01T02:41:54;0.80;99.90
12386;DHT22;6257;57.634;18.310;2023-03-01T02:44:24;0.70;99.90
12386;DHT22;6257;57.634;18.310;2023-03-01T02:46:53;0.80;99.90
12386;DHT22;6257;57.634;18.310;2023-03-01T02:49:23;0.90;99.90
12386;DHT22;6257;57.634;18.310;2023-03-01T02:52:08;1.10;99.90
12386;DHT22;6257;57.634;18.310;2023-03-01T02:54:41;1.30;99.90
12386;DHT22;6257;57.634;18.310;2023-03-01T02:57:10;1.50;99.90
12386;DHT22;6257;57.634;18.310;2023-03-01T02:59:40;1.50;99.90
12386;DHT22;6257;57.634;18.310;2023-03-01T03:02:18;1.50;99.90
12386;DHT22;6257;57.634;18.310;2023-03-01T03:04:47;1.60;99.90
12386;DHT22;6257;57.634;18.310;2023-03-01T03:07:14;1.50;99.90
12386;DHT22;6257;57.634;18.310;2023-03-01T03:09:42;1.50;99.90
12386;DHT22;6257;57.634;18.310;2023-03-01T03:12:09;1.40;99.90
12386;DHT22;6257;57.634;18.310;2023-03-01T03:14:36;1.40;99.90
12386;DHT22;6257;57.634;18.310;2023-03-01T03:17:05;1.30;99.90
12386;DHT22;6257;57.634;18.310;2023-03-01T03:19:32;1.40;99.90
12386;DHT22;6257;57.634;18.310;2023-03-01T03:21:59;1.40;99.90
12386;DHT22;6257;57.634;18.310;2023-03-01T03:24:27;1.40;99.90
12386;DHT22;6257;57.634;18.310;2023-03-01T03:27:03;1.30;99.90
12386;DHT22;6257;57.634;18.310;2023-03-01T03:29:30;1.40;99.90
12386;DHT22;6257;57.634;18.310;2023-03-01T03:31:58;1.20;99.90
12386;DHT22;6257;57.634;18.310;2023-03-01T03:34:26;1.30;99.90
12386;DHT22;6257;57.634;18.310;2023-03-01T03:36:54;1.30;99.90
12386;DHT22;6257;57.634;18.310;2023-03-01T03:39:22;1.50;99.90
12386;DHT22;6257;57.634;18.310;2023-03-01T03:41:49;1.40;99.90
12386;DHT22;6257;57.634;18.310;2023-03-01T03:44:16;1.50;99.90
12386;DHT22;6257;57.634;18.310;2023-03-01T03:46:43;1.70;99.90
12386;DHT22;6257;57.634;18.310;2023-03-01T03:49:10;1.90;99.90
12386;DHT22;6257;57.634;18.310;2023-03-01T03:51:38;1.90;99.90
12386;DHT22;6257;57.634;18.310;2023-03-01T03:54:06;1.90;99.90
12386;DHT22;6257;57.634;18.310;2023-03-01T03:56:33;2.00;99.90
12386;DHT22;6257;57.634;18.310;2023-03-01T03:59:00;2.00;99.90
12386;DHT22;6257;57.634;18.310;2023-03-01T04:01:27;2.00;99.90
12386;DHT22;6257;57.634;18.310;2023-03-01T04:03:54;2.00;99.90
12386;DHT22;6257;57.634;18.310;2023-03-01T04:06:21;2.10;99.90
12386;DHT22;6257;57.634;18.310;2023-03-01T04:08:50;2.10;99.90
12386;DHT22;6257;57.634;18.310;2023-03-01T04:11:23;2.10;99.90
12386;DHT22;6257;57.634;18.310;2023-03-01T04:13:55;2.10;99.90
12386;DHT22;6257;57.634;18.310;2023-03-01T04:16:23;2.10;99.90
12386;DHT22;6257;57.634;18.310;2023-03-01T04:18:50;2.10;99.90
12386;DHT22;6257;57.634;18.310;2023-03-01T04:21:19;2.10;99.90
12386;DHT22;6257;57.634;18.310;2023-03-01T04:23:46;2.00;99.90
12386;DHT22;6257;57.634;18.310;2023-03-01T04:26:14;2.10;99.90
12386;DHT22;6257;57.634;18.310;2023-03-01T04:28:42;2.00;99.90
12386;DHT22;6257;57.634;18.310;2023-03-01T04:31:12;2.00;99.90
12386;DHT22;6257;57.634;18.310;2023-03-01T04:33:40;2.00;99.90
12386;DHT22;6257;57.634;18.310;2023-03-01T04:36:09;2.00;99.90
12386;DHT22;6257;57.634;18.310;2023-03-01T04:38:37;1.90;99.90
12386;DHT22;6257;57.634;18.310;2023-03-01T04:41:05;1.90;99.90
12386;DHT22;6257;57.634;18.310;2023-03-01T04:43:34;1.90;99.90
12386;DHT22;6257;57.634;18.310;2023-03-01T04:46:02;1.90;99.90
12386;DHT22;6257;57.634;18.310;2023-03-01T04:48:30;1.90;99.90
12386;DHT22;6257;57.634;18.310;2023-03-01T04:50:58;2.00;99.90
12386;DHT22;6257;57.634;18.310;2023-03-01T04:53:26;2.00;99.90
12386;DHT22;6257;57.634;18.310;2023-03-01T04:55:54;1.90;99.90
12386;DHT22;6257;57.634;18.310;2023-03-01T04:58:21;1.90;99.90
12386;DHT22;6257;57.634;18.310;2023-03-01T05:00:49;1.90;99.90
12386;DHT22;6257;57.634;18.310;2023-03-01T05:03:17;1.90;99.90
12386;DHT22;6257;57.634;18.310;2023-03-01T05:05:45;1.80;99.90
12386;DHT22;6257;57.634;18.310;2023-03-01T05:08:13;1.80;99.90
12386;DHT22;6257;57.634;18.310;2023-03-01T05:10:45;1.70;99.90
12386;DHT22;6257;57.634;18.310;2023-03-01T05:13:13;1.60;99.90
12386;DHT22;6257;57.634;18.310;2023-03-01T05:15:45;1.60;99.90
12386;DHT22;6257;57.634;18.310;2023-03-01T05:18:13;1.60;99.90
12386;DHT22;6257;57.634;18.310;2023-03-01T05:20:40;1.60;99.90
12386;DHT22;6257;57.634;18.310;2023-03-01T05:23:07;1.50;99.90
12386;DHT22;6257;57.634;18.310;2023-03-01T05:25:34;1.40;99.90
12386;DHT22;6257;57.634;18.310;2023-03-01T05:28:06;1.30;99.90
12386;DHT22;6257;57.634;18.310;2023-03-01T05:30:35;1.30;99.90
12386;DHT22;6257;57.634;18.310;2023-03-01T05:33:05;1.20;99.90
12386;DHT22;6257;57.634;18.310;2023-03-01T05:35:37;1.30;99.90
12386;DHT22;6257;57.634;18.310;2023-03-01T05:38:04;1.10;99.90
12386;DHT22;6257;57.634;18.310;2023-03-01T05:40:33;1.10;99.90
12386;DHT22;6257;57.634;18.310;2023-03-01T05:43:00;1.20;99.90
12386;DHT22;6257;57.634;18.310;2023-03-01T05:45:31;1.20;99.90
12386;DHT22;6257;57.634;18.310;2023-03-01T05:47:58;1.10;99.90
12386;DHT22;6257;57.634;18.310;2023-03-01T05:50:27;1.00;99.90
12386;DHT22;6257;57.634;18.310;2023-03-01T05:52:59;0.90;99.90
12386;DHT22;6257;57.634;18.310;2023-03-01T05:55:28;0.80;99.90
12386;DHT22;6257;57.634;18.310;2023-03-01T05:57:57;0.70;99.90
12386;DHT22;6257;57.634;18.310;2023-03-01T06:00:24;0.60;99.90
12386;DHT22;6257;57.634;18.310;2023-03-01T06:02:53;0.70;99.90
12386;DHT22;6257;57.634;18.310;2023-03-01T06:05:20;0.70;99.90
12386;DHT22;6257;57.634;18.310;2023-03-01T06:07:48;0.60;99.90
12386;DHT22;6257;57.634;18.310;2023-03-01T06:10:18;1.30;99.90
12386;DHT22;6257;57.634;18.310;2023-03-01T06:12:45;1.10;99.90
12386;DHT22;6257;57.634;18.310;2023-03-01T06:15:14;1.30;99.90
12386;DHT22;6257;57.634;18.310;2023-03-01T06:17:43;0.60;99.90
12386;DHT22;6257;57.634;18.310;2023-03-01T06:20:13;0.60;99.90
12386;DHT22;6257;57.634;18.310;2023-03-01T06:22:41;0.70;99.90
12386;DHT22;6257;57.634;18.310;2023-03-01T06:25:10;1.10;99.90
12386;DHT22;6257;57.634;18.310;2023-03-01T06:27:40;1.20;99.90
12386;DHT22;6257;57.634;18.310;2023-03-01T06:30:08;1.20;99.90
12386;DHT22;6257;57.634;18.310;2023-03-01T06:32:36;1.40;99.90
12386;DHT22;6257;57.634;18.310;2023-03-01T06:35:04;1.50;99.90
12386;DHT22;6257;57.634;18.310;2023-03-01T06:37:31;1.60;99.90
12386;DHT22;6257;57.634;18.310;2023-03-01T06:39:58;1.60;99.90
12386;DHT22;6257;57.634;18.310;2023-03-01T06:42:25;1.70;99.90
12386;DHT22;6257;57.634;18.310;2023-03-01T06:44:53;1.70;99.90
12386;DHT22;6257;57.634;18.310;2023-03-01T06:47:21;1.80;99.90
12386;DHT22;6257;57.634;18.310;2023-03-01T06:49:48;1.90;99.90
12386;DHT22;6257;57.634;18.310;2023-03-01T06:52:15;2.00;99.90
12386;DHT22;6257;57.634;18.310;2023-03-01T06:54:42;2.10;99.90
12386;DHT22;6257;57.634;18.310;2023-03-01T06:57:09;2.10;99.90
12386;DHT22;6257;57.634;18.310;2023-03-01T06:59:36;2.20;99.90
12386;DHT22;6257;57.634;18.310;2023-03-01T07:02:04;2.30;99.90
12386;DHT22;6257;57.634;18.310;2023-03-01T07:04:31;2.30;99.90
12386;DHT22;6257;57.634;18.310;2023-03-01T07:06:58;2.40;99.90
12386;DHT22;6257;57.634;18.310;2023-03-01T07:09:25;2.40;99.90
12386;DHT22;6257;57.634;18.310;2023-03-01T07:11:52;2.50;99.90
12386;DHT22;6257;57.634;18.310;2023-03-01T07:14:19;2.50;99.90
12386;DHT22;6257;57.634;18.310;2023-03-01T07:16:47;2.50;99.90
12386;DHT22;6257;57.634;18.310;2023-03-01T07:19:15;2.50;99.90
12386;DHT22;6257;57.634;18.310;2023-03-01T07:21:42;2.50;99.90
12386;DHT22;6257;57.634;18.310;2023-03-01T07:24:09;2.60;99.90
12386;DHT22;6257;57.634;18.310;2023-03-01T07:26:37;2.60;99.90
12386;DHT22;6257;57.634;18.310;2023-03-01T07:29:06;2.60;99.90
12386;DHT22;6257;57.634;18.310;2023-03-01T07:31:33;2.70;99.90
12386;DHT22;6257;57.634;18.310;2023-03-01T07:34:01;2.70;99.90
12386;DHT22;6257;57.634;18.310;2023-03-01T07:36:29;2.70;99.90
12386;DHT22;6257;57.634;18.310;2023-03-01T07:38:56;2.70;99.90
12386;DHT22;6257;57.634;18.310;2023-03-01T07:41:23;2.80;99.90
12386;DHT22;6257;57.634;18.310;2023-03-01T07:43:50;2.80;99.90
12386;DHT22;6257;57.634;18.310;2023-03-01T07:46:17;2.90;99.90
12386;DHT22;6257;57.634;18.310;2023-03-01T07:48:45;2.90;99.90
12386;DHT22;6257;57.634;18.310;2023-03-01T07:51:13;2.90;99.90
12386;DHT22;6257;57.634;18.310;2023-03-01T07:53:41;3.00;99.90
12386;DHT22;6257;57.634;18.310;2023-03-01T07:56:10;3.00;99.90
12386;DHT22;6257;57.634;18.310;2023-03-01T07:58:39;3.10;99.90
12386;DHT22;6257;57.634;18.310;2023-03-01T08:01:08;3.10;99.90
12386;DHT22;6257;57.634;18.310;2023-03-01T08:03:36;3.20;99.90
12386;DHT22;6257;57.634;18.310;2023-03-01T08:06:05;3.30;99.90
12386;DHT22;6257;57.634;18.310;2023-03-01T08:08:33;3.40;99.90
12386;DHT22;6257;57.634;18.310;2023-03-01T08:11:03;3.50;99.90
12386;DHT22;6257;57.634;18.310;2023-03-01T08:13:31;3.80;99.90
12386;DHT22;6257;57.634;18.310;2023-03-01T08:16:01;4.20;99.90
12386;DHT22;6257;57.634;18.310;2023-03-01T08:18:29;4.70;99.90
12386;DHT22;6257;57.634;18.310;2023-03-01T08:21:00;5.40;99.90
12386;DHT22;6257;57.634;18.310;2023-03-01T08:23:27;6.30;99.90
12386;DHT22;6257;57.634;18.310;2023-03-01T08:26:03;7.20;99.90
12386;DHT22;6257;57.634;18.310;2023-03-01T08:28:31;7.30;99.90
12386;DHT22;6257;57.634;18.310;2023-03-01T08:30:58;7.20;99.90
12386;DHT22;6257;57.634;18.310;2023-03-01T08:33:25;7.00;99.90
12386;DHT22;6257;57.634;18.310;2023-03-01T08:35:52;6.80;99.90
12386;DHT22;6257;57.634;18.310;2023-03-01T08:38:28;6.10;99.90
12386;DHT22;6257;57.634;18.310;2023-03-01T08:40:55;5.40;99.90
12386;DHT22;6257;57.634;18.310;2023-03-01T08:43:23;4.60;99.90
12386;DHT22;6257;57.634;18.310;2023-03-01T08:45:50;4.10;99.90
12386;DHT22;6257;57.634;18.310;2023-03-01T08:48:18;3.80;99.90
12386;DHT22;6257;57.634;18.310;2023-03-01T08:50:45;3.70;99.90
12386;DHT22;6257;57.634;18.310;2023-03-01T08:53:12;3.60;99.90
12386;DHT22;6257;57.634;18.310;2023-03-01T08:55:39;3.50;99.90
12386;DHT22;6257;57.634;18.310;2023-03-01T08:58:06;3.50;99.90
12386;DHT22;6257;57.634;18.310;2023-03-01T09:00:35;3.50;99.90
12386;DHT22;6257;57.634;18.310;2023-03-01T09:03:02;3.60;99.90
12386;DHT22;6257;57.634;18.310;2023-03-01T09:05:31;3.60;99.90
12386;DHT22;6257;57.634;18.310;2023-03-01T09:07:59;3.60;99.90
12386;DHT22;6257;57.634;18.310;2023-03-01T09:10:26;3.50;99.90
12386;DHT22;6257;57.634;18.310;2023-03-01T09:12:53;3.50;99.90
12386;DHT22;6257;57.634;18.310;2023-03-01T09:15:20;3.50;99.90
12386;DHT22;6257;57.634;18.310;2023-03-01T09:17:48;3.50;99.90
12386;DHT22;6257;57.634;18.310;2023-03-01T09:20:16;3.50;99.90
12386;DHT22;6257;57.634;18.310;2023-03-01T09:22:43;3.50;99.90
12386;DHT22;6257;57.634;18.310;2023-03-01T09:25:10;3.50;99.90
12386;DHT22;6257;57.634;18.310;2023-03-01T09:27:37;3.50;99.90
12386;DHT22;6257;57.634;18.310;2023-03-01T09:30:05;3.50;99.90
12386;DHT22;6257;57.634;18.310;2023-03-01T09:32:32;3.50;99.90
12386;DHT22;6257;57.634;18.310;2023-03-01T09:35:01;3.50;99.90
12386;DHT22;6257;57.634;18.310;2023-03-01T09:37:31;3.50;99.90
12386;DHT22;6257;57.634;18.310;2023-03-01T09:39:58;3.50;99.90
12386;DHT22;6257;57.634;18.310;2023-03-01T09:42:26;3.60;99.90
12386;DHT22;6257;57.634;18.310;2023-03-01T09:44:57;3.60;99.90
12386;DHT22;6257;57.634;18.310;2023-03-01T09:47:29;3.50;99.90
12386;DHT22;6257;57.634;18.310;2023-03-01T09:50:04;3.50;99.90
12386;DHT22;6257;57.634;18.310;2023-03-01T09:52:36;3.50;99.90
12386;DHT22;6257;57.634;18.310;2023-03-01T09:55:10;3.60;99.90
12386;DHT22;6257;57.634;18.310;2023-03-01T09:57:43;3.60;99.90
12386;DHT22;6257;57.634;18.310;2023-03-01T10:00:26;3.60;99.90
12386;DHT22;6257;57.634;18.310;2023-03-01T10:03:00;3.40;99.90
12386;DHT22;6257;57.634;18.310;2023-03-01T10:05:39;3.40;99.90
12386;DHT22;6257;57.634;18.310;2023-03-01T10:08:26;3.40;99.90
12386;DHT22;6257;57.634;18.310;2023-03-01T10:10:56;3.40;99.90
12386;DHT22;6257;57.634;18.310;2023-03-01T10:13:30;3.40;99.90
12386;DHT22;6257;57.634;18.310;2023-03-01T10:16:01;3.40;99.90
12386;DHT22;6257;57.634;18.310;2023-03-01T10:18:32;3.40;99.90
12386;DHT22;6257;57.634;18.310;2023-03-01T10:21:13;3.40;99.90
12386;DHT22;6257;57.634;18.310;2023-03-01T10:23:41;3.50;99.90
12386;DHT22;6257;57.634;18.310;2023-03-01T10:26:24;3.50;99.90
12386;DHT22;6257;57.634;18.310;2023-03-01T10:29:02;3.60;99.90
12386;DHT22;6257;57.634;18.310;2023-03-01T10:31:38;3.50;99.90
12386;DHT22;6257;57.634;18.310;2023-03-01T10:34:10;3.50;99.90
12386;DHT22;6257;57.634;18.310;2023-03-01T10:36:40;3.50;99.90
12386;DHT22;6257;57.634;18.310;2023-03-01T10:39:13;3.40;99.90
12386;DHT22;6257;57.634;18.310;2023-03-01T10:41:53;3.50;99.90
12386;DHT22;6257;57.634;18.310;2023-03-01T10:44:37;3.60;99.90
12386;DHT22;6257;57.634;18.310;2023-03-01T10:47:04;3.60;99.90
12386;DHT22;6257;57.634;18.310;2023-03-01T10:49:32;3.50;99.90
12386;DHT22;6257;57.634;18.310;2023-03-01T10:52:17;3.50;99.90
12386;DHT22;6257;57.634;18.310;2023-03-01T10:54:52;3.50;99.90
12386;DHT22;6257;57.634;18.310;2023-03-01T10:57:28;3.50;99.90
12386;DHT22;6257;57.634;18.310;2023-03-01T11:03:03;3.50;99.90
12386;DHT22;6257;57.634;18.310;2023-03-01T11:05:30;3.50;99.90
12386;DHT22;6257;57.634;18.310;2023-03-01T11:08:02;3.60;99.90
12386;DHT22;6257;57.634;18.310;2023-03-01T11:10:31;3.60;99.90
12386;DHT22;6257;57.634;18.310;2023-03-01T11:13:13;3.50;99.90
12386;DHT22;6257;57.634;18.310;2023-03-01T11:15:41;3.50;99.90
12386;DHT22;6257;57.634;18.310;2023-03-01T11:18:19;3.50;99.90
12386;DHT22;6257;57.634;18.310;2023-03-01T11:20:47;3.50;99.90
12386;DHT22;6257;57.634;18.310;2023-03-01T11:23:17;3.50;99.90
12386;DHT22;6257;57.634;18.310;2023-03-01T11:25:50;3.40;99.90
12386;DHT22;6257;57.634;18.310;2023-03-01T11:28:21;3.40;99.90
12386;DHT22;6257;57.634;18.310;2023-03-01T11:30:53;3.40;99.90
12386;DHT22;6257;57.634;18.310;2023-03-01T11:33:34;3.30;99.90
12386;DHT22;6257;57.634;18.310;2023-03-01T11:36:05;3.40;99.90
12386;DHT22;6257;57.634;18.310;2023-03-01T11:38:36;3.40;99.90
12386;DHT22;6257;57.634;18.310;2023-03-01T11:41:07;3.40;99.90
12386;DHT22;6257;57.634;18.310;2023-03-01T11:43:43;3.40;99.90
12386;DHT22;6257;57.634;18.310;2023-03-01T11:46:37;3.40;99.90
12386;DHT22;6257;57.634;18.310;2023-03-01T11:52:16;3.30;99.90
12386;DHT22;6257;57.634;18.310;2023-03-01T11:55:11;3.40;99.90
12386;DHT22;6257;57.634;18.310;2023-03-01T11:57:53;3.50;99.90
12386;DHT22;6257;57.634;18.310;2023-03-01T12:00:36;3.60;99.90
12386;DHT22;6257;57.634;18.310;2023-03-01T12:03:32;3.60;99.90
12386;DHT22;6257;57.634;18.310;2023-03-01T12:06:17;3.50;99.90
12386;DHT22;6257;57.634;18.310;2023-03-01T12:08:58;3.50;99.90
12386;DHT22;6257;57.634;18.310;2023-03-01T12:11:43;3.40;99.90
12386;DHT22;6257;57.634;18.310;2023-03-01T12:17:33;3.50;99.90
12386;DHT22;6257;57.634;18.310;2023-03-01T12:20:14;3.30;99.90
12386;DHT22;6257;57.634;18.310;2023-03-01T12:22:55;3.40;99.90
12386;DHT22;6257;57.634;18.310;2023-03-01T12:25:31;3.40;99.90
12386;DHT22;6257;57.634;18.310;2023-03-01T12:28:24;3.40;99.90
12386;DHT22;6257;57.634;18.310;2023-03-01T12:31:18;3.40;99.90
12386;DHT22;6257;57.634;18.310;2023-03-01T12:33:58;3.40;99.90
12386;DHT22;6257;57.634;18.310;2023-03-01T12:36:40;3.50;99.90
12386;DHT22;6257;57.634;18.310;2023-03-01T12:39:32;3.40;99.90
12386;DHT22;6257;57.634;18.310;2023-03-01T12:42:09;3.40;99.90
12386;DHT22;6257;57.634;18.310;2023-03-01T12:45:07;3.40;99.90
12386;DHT22;6257;57.634;18.310;2023-03-01T12:47:54;3.40;99.90
12386;DHT22;6257;57.634;18.310;2023-03-01T12:50:25;3.40;99.90
12386;DHT22;6257;57.634;18.310;2023-03-01T12:52:56;3.40;99.90
12386;DHT22;6257;57.634;18.310;2023-03-01T12:55:32;3.50;99.90
12386;DHT22;6257;57.634;18.310;2023-03-01T12:58:05;3.50;99.90
12386;DHT22;6257;57.634;18.310;2023-03-01T13:00:41;3.50;99.90
12386;DHT22;6257;57.634;18.310;2023-03-01T13:03:20;3.40;99.90
12386;DHT22;6257;57.634;18.310;2023-03-01T13:06:00;3.40;99.90
12386;DHT22;6257;57.634;18.310;2023-03-01T13:08:36;3.30;99.90
12386;DHT22;6257;57.634;18.310;2023-03-01T13:11:15;3.30;99.90
12386;DHT22;6257;57.634;18.310;2023-03-01T13:13:42;3.30;99.90
12386;DHT22;6257;57.634;18.310;2023-03-01T13:16:39;3.20;99.90
12386;DHT22;6257;57.634;18.310;2023-03-01T13:19:12;3.30;99.90
12386;DHT22;6257;57.634;18.310;2023-03-01T13:21:41;3.30;99.90
12386;DHT22;6257;57.634;18.310;2023-03-01T13:24:24;3.30;99.90
12386;DHT22;6257;57.634;18.310;2023-03-01T13:29:56;3.30;99.90
12386;DHT22;6257;57.634;18.310;2023-03-01T13:32:27;3.30;99.90
12386;DHT22;6257;57.634;18.310;2023-03-01T13:34:59;3.30;99.90
12386;DHT22;6257;57.634;18.310;2023-03-01T13:37:34;3.30;99.90
12386;DHT22;6257;57.634;18.310;2023-03-01T13:42:52;3.50;99.90
12386;DHT22;6257;57.634;18.310;2023-03-01T13:45:23;3.60;99.90
12386;DHT22;6257;57.634;18.310;2023-03-01T13:47:56;3.50;99.90
12386;DHT22;6257;57.634;18.310;2023-03-01T13:50:27;3.50;99.90
12386;DHT22;6257;57.634;18.310;2023-03-01T13:52:57;3.50;99.90
12386;DHT22;6257;57.634;18.310;2023-03-01T13:55:30;3.40;99.90
12386;DHT22;6257;57.634;18.310;2023-03-01T13:58:04;3.50;99.90
12386;DHT22;6257;57.634;18.310;2023-03-01T14:00:34;3.50;99.90
12386;DHT22;6257;57.634;18.310;2023-03-01T14:03:16;3.50;99.90
12386;DHT22;6257;57.634;18.310;2023-03-01T14:05:58;3.50;99.90
12386;DHT22;6257;57.634;18.310;2023-03-01T14:08:29;3.50;99.90
12386;DHT22;6257;57.634;18.310;2023-03-01T14:11:27;3.50;99.90
12386;DHT22;6257;57.634;18.310;2023-03-01T14:17:12;3.40;99.90
12386;DHT22;6257;57.634;18.310;2023-03-01T14:19:43;3.50;99.90
12386;DHT22;6257;57.634;18.310;2023-03-01T14:22:17;3.50;99.90
12386;DHT22;6257;57.634;18.310;2023-03-01T14:24:48;3.50;99.90
12386;DHT22;6257;57.634;18.310;2023-03-01T14:27:16;3.50;99.90
12386;DHT22;6257;57.634;18.310;2023-03-01T14:29:47;3.50;99.90
12386;DHT22;6257;57.634;18.310;2023-03-01T14:32:24;3.50;99.90
12386;DHT22;6257;57.634;18.310;2023-03-01T14:34:53;3.50;99.90
12386;DHT22;6257;57.634;18.310;2023-03-01T14:37:22;3.50;99.90
12386;DHT22;6257;57.634;18.310;2023-03-01T14:39:51;3.50;99.90
12386;DHT22;6257;57.634;18.310;2023-03-01T14:42:20;3.40;99.90
12386;DHT22;6257;57.634;18.310;2023-03-01T14:44:49;3.50;99.90
12386;DHT22;6257;57.634;18.310;2023-03-01T14:47:25;3.50;99.90
12386;DHT22;6257;57.634;18.310;2023-03-01T14:49:59;3.40;99.90
12386;DHT22;6257;57.634;18.310;2023-03-01T14:52:33;3.50;99.90
12386;DHT22;6257;57.634;18.310;2023-03-01T14:55:04;3.50;99.90
12386;DHT22;6257;57.634;18.310;2023-03-01T14:57:32;3.50;99.90
12386;DHT22;6257;57.634;18.310;2023-03-01T15:00:01;3.50;99.90
12386;DHT22;6257;57.634;18.310;2023-03-01T15:02:31;3.50;99.90
12386;DHT22;6257;57.634;18.310;2023-03-01T15:05:03;3.40;99.90
12386;DHT22;6257;57.634;18.310;2023-03-01T15:07:33;3.40;99.90
12386;DHT22;6257;57.634;18.310;2023-03-01T15:10:02;3.30;99.90
12386;DHT22;6257;57.634;18.310;2023-03-01T15:12:40;3.20;99.90
12386;DHT22;6257;57.634;18.310;2023-03-01T15:15:32;3.20;99.90
12386;DHT22;6257;57.634;18.310;2023-03-01T15:18:01;3.10;99.90
12386;DHT22;6257;57.634;18.310;2023-03-01T15:20:31;3.10;99.90
12386;DHT22;6257;57.634;18.310;2023-03-01T15:23:01;3.10;99.90
12386;DHT22;6257;57.634;18.310;2023-03-01T15:25:29;3.10;99.90
12386;DHT22;6257;57.634;18.310;2023-03-01T15:27:58;3.10;99.90
12386;DHT22;6257;57.634;18.310;2023-03-01T15:30:27;3.10;99.90
12386;DHT22;6257;57.634;18.310;2023-03-01T15:33:25;3.10;99.90
12386;DHT22;6257;57.634;18.310;2023-03-01T15:35:57;3.00;99.90
12386;DHT22;6257;57.634;18.310;2023-03-01T15:38:31;3.00;99.90
12386;DHT22;6257;57.634;18.310;2023-03-01T15:40:59;2.90;99.90
12386;DHT22;6257;57.634;18.310;2023-03-01T15:43:44;2.90;99.90
12386;DHT22;6257;57.634;18.310;2023-03-01T15:46:21;2.80;99.90
12386;DHT22;6257;57.634;18.310;2023-03-01T15:48:52;2.80;99.90
12386;DHT22;6257;57.634;18.310;2023-03-01T15:51:29;2.80;99.90
12386;DHT22;6257;57.634;18.310;2023-03-01T15:53:59;2.70;99.90
12386;DHT22;6257;57.634;18.310;2023-03-01T15:56:26;2.70;99.90
12386;DHT22;6257;57.634;18.310;2023-03-01T15:58:58;2.60;99.90
12386;DHT22;6257;57.634;18.310;2023-03-01T16:01:25;2.60;99.90
12386;DHT22;6257;57.634;18.310;2023-03-01T16:03:52;2.50;99.90
12386;DHT22;6257;57.634;18.310;2023-03-01T16:06:20;2.50;99.90
12386;DHT22;6257;57.634;18.310;2023-03-01T16:08:49;2.40;99.90
12386;DHT22;6257;57.634;18.310;2023-03-01T16:11:17;2.40;99.90
12386;DHT22;6257;57.634;18.310;2023-03-01T16:13:44;2.40;99.90
12386;DHT22;6257;57.634;18.310;2023-03-01T16:16:13;2.40;99.90
12386;DHT22;6257;57.634;18.310;2023-03-01T16:18:42;2.40;99.90
12386;DHT22;6257;57.634;18.310;2023-03-01T16:21:13;2.30;99.90
12386;DHT22;6257;57.634;18.310;2023-03-01T16:23:42;2.30;99.90
12386;DHT22;6257;57.634;18.310;2023-03-01T16:26:11;2.20;99.90